createdAt,value
2023-05-21T00:01:48.362Z,11.38
2023-05-21T00:04:17.689Z,11.75
2023-05-21T00:06:45.470Z,11.50
2023-05-21T00:09:13.661Z,11.55
2023-05-21T00:11:41.452Z,11.73
2023-05-21T00:14:09.297Z,11.57
2023-05-21T00:16:37.061Z,11.70
2023-05-21T00:19:04.938Z,12.57
2023-05-21T00:21:33.240Z,11.80
2023-05-21T00:24:00.963Z,11.38
2023-05-21T00:26:28.766Z,12.95
2023-05-21T00:28:58.238Z,13.32
2023-05-21T00:31:26.040Z,12.23
2023-05-21T00:33:54.062Z,12.73
2023-05-21T00:36:23.627Z,12.40
2023-05-21T00:38:52.325Z,11.90
2023-05-21T00:41:22.922Z,11.95
2023-05-21T00:43:50.878Z,11.73
2023-05-21T00:46:21.366Z,13.10
2023-05-21T00:48:50.713Z,12.83
2023-05-21T00:51:18.929Z,12.02
2023-05-21T00:53:47.072Z,12.38
2023-05-21T00:56:14.946Z,12.60
2023-05-21T00:58:42.817Z,12.32
2023-05-21T01:01:13.734Z,11.77
2023-05-21T01:03:42.771Z,11.55
2023-05-21T01:06:11.597Z,12.45
2023-05-21T01:08:40.820Z,12.77
2023-05-21T01:11:11.016Z,12.70
2023-05-21T01:13:41.391Z,13.73
2023-05-21T01:16:10.914Z,12.77
2023-05-21T01:18:38.952Z,13.05
2023-05-21T01:21:09.994Z,12.45
2023-05-21T01:23:37.867Z,11.80
2023-05-21T01:26:07.316Z,12.30
2023-05-21T01:28:35.172Z,12.25
2023-05-21T01:31:24.784Z,13.02
2023-05-21T01:33:56.287Z,12.57
2023-05-21T01:36:29.086Z,12.93
2023-05-21T01:39:16.302Z,12.68
2023-05-21T01:41:46.167Z,12.45
2023-05-21T01:44:17.691Z,13.38
2023-05-21T01:46:45.711Z,12.75
2023-05-21T01:49:14.506Z,12.13
2023-05-21T01:51:42.725Z,12.65
2023-05-21T01:54:10.747Z,12.40
2023-05-21T01:56:38.555Z,12.95
2023-05-21T01:59:06.420Z,11.32
2023-05-21T02:01:34.299Z,13.07
2023-05-21T02:04:02.222Z,12.65
2023-05-21T02:06:31.788Z,13.88
2023-05-21T02:09:00.114Z,12.57
2023-05-21T02:11:28.113Z,12.32
2023-05-21T02:13:57.413Z,13.27
2023-05-21T02:16:27.109Z,12.52
2023-05-21T02:18:57.514Z,12.52
2023-05-21T02:21:25.566Z,12.50
2023-05-21T02:23:53.330Z,12.48
2023-05-21T02:26:22.487Z,12.82
2023-05-21T02:28:50.390Z,12.45
2023-05-21T02:31:18.297Z,12.48
2023-05-21T02:33:46.250Z,12.85
2023-05-21T02:36:15.345Z,13.80
2023-05-21T02:38:43.883Z,13.35
2023-05-21T02:41:12.506Z,12.88
2023-05-21T02:43:40.493Z,12.55
2023-05-21T02:46:08.444Z,12.63
2023-05-21T02:48:36.616Z,13.57
2023-05-21T02:51:05.887Z,13.25
2023-05-21T02:53:33.705Z,13.23
2023-05-21T02:56:01.504Z,13.55
2023-05-21T02:58:29.351Z,12.88
2023-05-21T03:00:57.158Z,13.32
2023-05-21T03:03:25.270Z,12.52
2023-05-21T03:05:53.160Z,13.10
2023-05-21T03:08:21.731Z,12.40
2023-05-21T03:10:49.551Z,12.95
2023-05-21T03:13:17.892Z,12.80
2023-05-21T03:15:46.565Z,13.60
2023-05-21T03:18:15.146Z,13.30
2023-05-21T03:20:46.042Z,13.25
2023-05-21T03:23:16.658Z,13.15
2023-05-21T03:25:46.181Z,12.13
2023-05-21T03:28:14.570Z,12.88
2023-05-21T03:30:49.734Z,12.68
2023-05-21T03:33:37.594Z,12.73
2023-05-21T03:36:18.576Z,13.07
2023-05-21T03:38:46.384Z,12.23
2023-05-21T03:41:14.354Z,12.68
2023-05-21T03:43:47.271Z,12.85
2023-05-21T03:46:15.406Z,12.75
2023-05-21T03:49:06.241Z,12.67
2023-05-21T03:51:38.253Z,13.23
2023-05-21T03:54:06.288Z,13.10
2023-05-21T03:56:35.707Z,12.98
2023-05-21T03:59:04.000Z,13.27
2023-05-21T04:01:33.338Z,13.55
2023-05-21T04:04:02.611Z,12.73
2023-05-21T04:06:30.621Z,13.45
2023-05-21T04:08:58.968Z,12.60
2023-05-21T04:11:26.786Z,13.55
2023-05-21T04:13:54.582Z,12.70
2023-05-21T04:16:22.577Z,13.27
2023-05-21T04:18:51.478Z,13.40
2023-05-21T04:21:19.444Z,13.05
2023-05-21T04:23:47.312Z,12.43
2023-05-21T04:26:25.256Z,12.80
2023-05-21T04:28:59.399Z,13.30
2023-05-21T04:31:27.290Z,12.95
2023-05-21T04:33:55.111Z,12.98
2023-05-21T04:36:23.136Z,12.32
2023-05-21T04:38:50.928Z,12.55
2023-05-21T04:41:19.101Z,12.13
2023-05-21T04:43:47.341Z,13.32
2023-05-21T04:46:16.314Z,12.82
2023-05-21T04:48:45.109Z,13.48
2023-05-21T04:51:15.072Z,13.13
2023-05-21T04:53:43.353Z,13.43
2023-05-21T04:56:11.101Z,13.80
2023-05-21T04:58:40.505Z,13.18
2023-05-21T05:01:09.059Z,13.38
2023-05-21T05:03:37.060Z,13.07
2023-05-21T05:06:05.569Z,13.93
2023-05-21T05:08:33.993Z,13.10
2023-05-21T05:11:02.990Z,12.60
2023-05-21T05:13:30.950Z,12.52
2023-05-21T05:16:00.376Z,12.95
2023-05-21T05:18:29.558Z,12.55
2023-05-21T05:20:57.569Z,13.50
2023-05-21T05:23:25.607Z,13.07
2023-05-21T05:25:53.709Z,13.00
2023-05-21T05:28:21.937Z,12.90
2023-05-21T05:30:49.957Z,13.02
2023-05-21T05:33:24.936Z,13.18
2023-05-21T05:35:53.878Z,12.85
2023-05-21T05:38:22.194Z,12.98
2023-05-21T05:40:50.062Z,13.07
2023-05-21T05:43:17.931Z,13.18
2023-05-21T05:45:46.217Z,13.65
2023-05-21T05:48:16.824Z,13.25
2023-05-21T05:50:45.787Z,12.55
2023-05-21T05:53:14.588Z,13.38
2023-05-21T05:55:42.424Z,13.15
2023-05-21T05:58:11.162Z,12.63
2023-05-21T06:01:04.624Z,12.50
2023-05-21T06:03:32.642Z,12.63
2023-05-21T06:06:06.647Z,13.25
2023-05-21T06:08:37.341Z,12.45
2023-05-21T06:13:33.776Z,11.73
2023-05-21T06:16:04.016Z,12.05
2023-05-21T06:18:32.813Z,12.05
2023-05-21T06:21:00.747Z,11.55
2023-05-21T06:23:29.261Z,11.35
2023-05-21T06:25:57.047Z,11.60
2023-05-21T06:28:26.394Z,10.68
2023-05-21T06:30:55.341Z,10.48
2023-05-21T06:33:25.079Z,10.88
2023-05-21T06:35:53.489Z,10.93
2023-05-21T06:38:21.462Z,10.07
2023-05-21T06:40:50.037Z,9.93
2023-05-21T06:43:31.076Z,10.07
2023-05-21T06:46:26.018Z,10.48
2023-05-21T06:48:53.977Z,9.82
2023-05-21T06:51:22.102Z,9.98
2023-05-21T06:53:49.916Z,10.75
2023-05-21T06:56:18.916Z,10.25
2023-05-21T06:58:47.315Z,9.75
2023-05-21T07:01:17.365Z,10.32
2023-05-21T07:03:47.919Z,9.38
2023-05-21T07:06:16.724Z,9.95
2023-05-21T07:08:46.322Z,9.63
2023-05-21T07:11:14.375Z,10.32
2023-05-21T07:13:42.451Z,9.32
2023-05-21T07:16:10.528Z,9.85
2023-05-21T07:18:39.894Z,9.98
2023-05-21T07:21:07.686Z,10.68
2023-05-21T07:23:36.532Z,9.80
2023-05-21T07:26:04.604Z,9.82
2023-05-21T07:28:32.326Z,10.20
2023-05-21T07:31:01.035Z,9.50
2023-05-21T07:33:34.879Z,9.60
2023-05-21T07:36:02.950Z,10.18
2023-05-21T07:38:31.587Z,9.30
2023-05-21T07:40:59.359Z,9.43
2023-05-21T07:43:27.218Z,9.50
2023-05-21T07:45:55.061Z,9.63
2023-05-21T07:48:23.001Z,9.52
2023-05-21T07:50:56.556Z,9.10
2023-05-21T07:53:24.462Z,9.13
2023-05-21T07:55:53.135Z,8.38
2023-05-21T07:58:25.508Z,8.30
2023-05-21T08:00:54.099Z,8.73
2023-05-21T08:03:22.072Z,8.45
2023-05-21T08:05:52.071Z,8.45
2023-05-21T08:08:22.120Z,8.10
2023-05-21T08:10:51.562Z,8.65
2023-05-21T08:13:21.576Z,8.68
2023-05-21T08:15:52.701Z,9.25
2023-05-21T08:18:23.934Z,8.85
2023-05-21T08:20:54.327Z,8.60
2023-05-21T08:23:24.722Z,9.07
2023-05-21T08:25:55.862Z,7.90
2023-05-21T08:28:27.562Z,8.52
2023-05-21T08:30:55.927Z,8.23
2023-05-21T08:33:25.691Z,8.63
2023-05-21T08:35:53.601Z,8.50
2023-05-21T08:38:28.796Z,8.90
2023-05-21T08:41:34.780Z,8.82
2023-05-21T08:44:04.350Z,8.40
2023-05-21T08:46:36.692Z,7.93
2023-05-21T08:49:04.619Z,8.30
2023-05-21T08:51:33.994Z,8.02
2023-05-21T08:54:02.880Z,8.45
2023-05-21T08:56:32.713Z,8.00
2023-05-21T08:59:02.179Z,7.57
2023-05-21T09:01:34.750Z,7.75
2023-05-21T09:04:21.308Z,7.65
2023-05-21T09:06:55.170Z,8.30
2023-05-21T09:10:08.779Z,7.70
2023-05-21T09:12:37.895Z,8.15
2023-05-21T09:15:07.149Z,7.68
2023-05-21T09:17:37.269Z,8.00
2023-05-21T09:20:27.242Z,7.90
2023-05-21T09:23:04.935Z,8.43
2023-05-21T09:25:37.659Z,7.68
2023-05-21T09:28:17.124Z,7.65
2023-05-21T09:30:46.949Z,7.72
2023-05-21T09:33:31.815Z,7.85
2023-05-21T09:35:59.813Z,7.40
2023-05-21T09:38:29.395Z,7.60
2023-05-21T09:40:58.688Z,7.50
2023-05-21T09:43:27.426Z,7.32
2023-05-21T09:45:59.743Z,6.88
2023-05-21T09:48:42.782Z,7.05
2023-05-21T09:51:20.375Z,6.63
2023-05-21T09:53:59.803Z,6.47
2023-05-21T09:56:30.676Z,7.28
2023-05-21T09:59:03.449Z,7.40
2023-05-21T10:01:34.071Z,8.60
2023-05-21T10:04:07.027Z,7.20
2023-05-21T10:06:42.238Z,7.38
2023-05-21T10:09:12.040Z,6.70
2023-05-21T10:11:43.476Z,7.03
2023-05-21T10:14:21.154Z,7.00
2023-05-21T10:16:52.530Z,6.30
2023-05-21T10:19:22.639Z,6.45
2023-05-21T10:21:52.789Z,6.68
2023-05-21T10:24:22.057Z,5.90
2023-05-21T10:26:50.891Z,5.95
2023-05-21T10:29:21.134Z,6.05
2023-05-21T10:31:52.599Z,5.68
2023-05-21T10:34:23.321Z,6.30
2023-05-21T10:36:52.575Z,6.28
2023-05-21T10:39:22.435Z,5.82
2023-05-21T10:42:42.427Z,6.10
2023-05-21T10:46:01.084Z,5.28
2023-05-21T10:48:59.845Z,5.38
2023-05-21T10:52:18.842Z,5.70
2023-05-21T10:55:11.391Z,5.53
2023-05-21T10:58:26.531Z,5.90
2023-05-21T11:00:56.757Z,5.38
2023-05-21T11:03:25.668Z,5.35
2023-05-21T11:05:57.498Z,5.65
2023-05-21T11:08:28.034Z,5.20
2023-05-21T11:10:59.791Z,5.00
2023-05-21T11:13:44.353Z,5.80
2023-05-21T11:16:16.766Z,5.30
2023-05-21T11:18:47.340Z,5.22
2023-05-21T11:21:21.023Z,5.30
2023-05-21T11:24:05.103Z,5.45
2023-05-21T11:26:48.217Z,5.78
2023-05-21T11:29:22.321Z,5.25
2023-05-21T11:32:05.425Z,5.30
2023-05-21T11:34:48.441Z,6.20
2023-05-21T11:37:26.809Z,5.70
2023-05-21T11:39:56.568Z,5.13
2023-05-21T11:42:35.035Z,5.65
2023-05-21T11:45:05.861Z,5.93
2023-05-21T11:47:33.844Z,5.45
2023-05-21T11:50:04.568Z,5.40
2023-05-21T11:52:33.169Z,5.40
2023-05-21T11:55:01.146Z,5.57
2023-05-21T11:57:32.960Z,5.28
2023-05-21T12:00:10.978Z,5.60
2023-05-21T12:02:50.848Z,5.22
2023-05-21T12:05:18.730Z,5.22
2023-05-21T12:07:50.005Z,5.28
2023-05-21T12:10:22.074Z,5.78
2023-05-21T12:12:56.581Z,5.47
2023-05-21T12:15:26.912Z,5.47
2023-05-21T12:17:56.922Z,5.70
2023-05-21T12:20:28.210Z,5.75
2023-05-21T12:22:58.989Z,5.18
2023-05-21T12:25:27.987Z,5.47
2023-05-21T12:27:58.472Z,5.40
2023-05-21T12:30:27.081Z,4.97
2023-05-21T12:32:58.562Z,5.43
2023-05-21T12:35:26.560Z,5.15
2023-05-21T12:37:54.537Z,5.15
2023-05-21T12:40:22.525Z,5.72
2023-05-21T12:42:51.553Z,5.53
2023-05-21T12:45:21.104Z,5.50
2023-05-21T12:47:56.365Z,5.43
2023-05-21T12:50:24.347Z,5.20
2023-05-21T12:52:56.007Z,5.18
2023-05-21T12:55:26.976Z,5.40
2023-05-21T13:00:41.548Z,4.70
2023-05-21T13:03:09.377Z,4.53
2023-05-21T13:05:41.567Z,4.80
2023-05-21T13:08:10.682Z,4.60
2023-05-21T13:10:38.849Z,4.60
2023-05-21T13:13:08.221Z,4.65
2023-05-21T13:15:35.983Z,4.72
2023-05-21T13:18:04.038Z,4.72
2023-05-21T13:20:31.821Z,4.70
2023-05-21T13:22:59.740Z,4.40
2023-05-21T13:25:29.141Z,4.40
2023-05-21T13:27:57.994Z,4.20
2023-05-21T13:30:26.141Z,4.50
2023-05-21T13:32:54.407Z,4.53
2023-05-21T13:35:22.350Z,4.45
2023-05-21T13:37:50.477Z,4.40
2023-05-21T13:40:18.353Z,4.65
2023-05-21T13:42:49.071Z,4.30
2023-05-21T13:45:20.907Z,4.40
2023-05-21T13:47:50.675Z,4.90
2023-05-21T13:50:20.110Z,4.60
2023-05-21T13:52:47.884Z,4.70
2023-05-21T13:55:16.082Z,4.63
2023-05-21T13:57:44.492Z,4.60
2023-05-21T14:00:16.248Z,4.20
2023-05-21T14:02:45.005Z,4.60
2023-05-21T14:05:13.658Z,4.20
2023-05-21T14:07:42.105Z,4.65
2023-05-21T14:10:10.594Z,4.13
2023-05-21T14:12:38.902Z,4.40
2023-05-21T14:15:07.670Z,4.68
2023-05-21T14:17:35.785Z,4.07
2023-05-21T14:20:05.672Z,4.43
2023-05-21T14:22:35.035Z,4.43
2023-05-21T14:25:04.659Z,4.32
2023-05-21T14:27:32.482Z,4.20
2023-05-21T14:30:00.309Z,4.78
2023-05-21T14:32:28.139Z,4.85
2023-05-21T14:34:56.855Z,4.70
2023-05-21T14:37:24.603Z,4.53
2023-05-21T14:39:52.411Z,5.03
2023-05-21T14:42:20.231Z,4.35
2023-05-21T14:44:48.002Z,4.60
2023-05-21T14:47:15.886Z,4.75
2023-05-21T14:49:43.670Z,4.53
2023-05-21T14:52:11.920Z,4.85
2023-05-21T14:54:39.690Z,5.03
2023-05-21T14:57:07.464Z,4.80
2023-05-21T14:59:37.460Z,4.00
2023-05-21T15:02:05.681Z,4.10
2023-05-21T15:04:33.581Z,4.80
2023-05-21T15:07:01.397Z,4.10
2023-05-21T15:09:29.178Z,4.40
2023-05-21T15:11:56.957Z,4.45
2023-05-21T15:14:26.446Z,4.28
2023-05-21T15:16:54.237Z,4.85
2023-05-21T15:19:26.015Z,4.70
2023-05-21T15:21:53.848Z,4.47
2023-05-21T15:24:21.640Z,4.30
2023-05-21T15:26:49.743Z,4.47
2023-05-21T15:29:17.551Z,4.72
2023-05-21T15:31:45.648Z,4.80
2023-05-21T15:34:13.822Z,4.60
2023-05-21T15:36:41.639Z,4.47
2023-05-21T15:39:09.413Z,4.50
2023-05-21T15:41:38.263Z,4.50
2023-05-21T15:44:06.241Z,4.40
2023-05-21T15:46:34.186Z,4.40
2023-05-21T15:49:01.988Z,4.15
2023-05-21T15:51:31.198Z,4.40
2023-05-21T15:53:59.538Z,4.40
2023-05-21T15:56:27.369Z,4.55
2023-05-21T15:58:58.161Z,4.78
2023-05-21T16:01:27.860Z,4.25
2023-05-21T16:03:56.289Z,4.97
2023-05-21T16:06:24.229Z,4.80
2023-05-21T16:08:52.262Z,4.75
2023-05-21T16:11:20.195Z,4.35
2023-05-21T16:13:49.907Z,4.65
2023-05-21T16:16:18.003Z,4.75
2023-05-21T16:18:48.246Z,4.55
2023-05-21T16:21:16.215Z,4.05
2023-05-21T16:23:45.563Z,4.22
2023-05-21T16:26:13.383Z,4.00
2023-05-21T16:28:41.288Z,4.65
2023-05-21T16:31:10.806Z,4.60
2023-05-21T16:33:39.002Z,4.60
2023-05-21T16:36:06.988Z,4.32
2023-05-21T16:38:34.689Z,4.28
2023-05-21T16:41:02.544Z,4.35
2023-05-21T16:43:30.545Z,4.40
2023-05-21T16:45:58.447Z,4.50
2023-05-21T16:48:26.240Z,4.32
2023-05-21T16:50:54.063Z,4.53
2023-05-21T16:53:21.879Z,4.78
2023-05-21T16:55:49.757Z,4.78
2023-05-21T16:58:17.713Z,4.80
2023-05-21T17:00:46.003Z,4.35
2023-05-21T17:03:14.057Z,4.43
2023-05-21T17:05:42.185Z,4.78
2023-05-21T17:08:10.211Z,4.55
2023-05-21T17:10:38.068Z,5.10
2023-05-21T17:13:17.592Z,4.88
2023-05-21T17:15:53.354Z,5.22
2023-05-21T17:18:21.856Z,4.50
2023-05-21T17:20:50.078Z,5.00
2023-05-21T17:23:17.956Z,5.00
2023-05-21T17:25:47.117Z,4.70
2023-05-21T17:28:14.998Z,5.30
2023-05-21T17:30:43.001Z,5.40
2023-05-21T17:33:14.006Z,4.95
2023-05-21T17:35:41.872Z,5.43
2023-05-21T17:38:14.090Z,4.75
2023-05-21T17:40:41.959Z,4.82
2023-05-21T17:43:10.010Z,4.30
2023-05-21T17:45:38.072Z,5.00
2023-05-21T17:50:36.566Z,4.97
2023-05-21T17:53:04.303Z,5.05
2023-05-21T17:55:32.068Z,4.80
2023-05-21T17:57:59.946Z,4.85
2023-05-21T18:00:27.940Z,5.22
2023-05-21T18:02:59.760Z,4.85
2023-05-21T18:05:29.389Z,4.80
2023-05-21T18:07:57.192Z,4.68
2023-05-21T18:10:25.048Z,5.32
2023-05-21T18:12:54.412Z,4.93
2023-05-21T18:15:22.187Z,4.70
2023-05-21T18:17:50.027Z,5.10
2023-05-21T18:20:18.333Z,4.75
2023-05-21T18:22:46.165Z,5.30
2023-05-21T18:25:13.971Z,4.72
2023-05-21T18:27:42.452Z,4.70
2023-05-21T18:30:10.805Z,5.38
2023-05-21T18:32:39.202Z,5.45
2023-05-21T18:35:13.122Z,5.10
2023-05-21T18:37:44.599Z,5.07
2023-05-21T18:40:13.412Z,4.95
2023-05-21T18:42:41.406Z,5.25
2023-05-21T18:45:10.432Z,5.30
2023-05-21T18:47:40.291Z,5.57
2023-05-21T18:50:13.429Z,5.30
2023-05-21T18:52:41.765Z,5.10
2023-05-21T18:55:10.071Z,6.18
2023-05-21T18:57:39.954Z,5.93
2023-05-21T19:00:11.118Z,5.53
2023-05-21T19:05:09.356Z,5.32
2023-05-21T19:07:37.323Z,5.60
2023-05-21T19:10:06.157Z,5.43
2023-05-21T19:12:36.040Z,5.55
2023-05-21T19:15:04.851Z,5.60
2023-05-21T19:17:34.519Z,5.53
2023-05-21T19:20:05.258Z,4.93
2023-05-21T19:22:33.873Z,5.75
2023-05-21T19:25:01.734Z,5.95
2023-05-21T19:27:29.742Z,5.75
2023-05-21T19:29:58.945Z,5.63
2023-05-21T19:32:26.928Z,5.60
2023-05-21T19:34:54.780Z,5.57
2023-05-21T19:37:22.776Z,5.70
2023-05-21T19:39:50.571Z,5.70
2023-05-21T19:42:21.298Z,5.97
2023-05-21T19:44:49.113Z,6.35
2023-05-21T19:47:19.819Z,5.70
2023-05-21T19:49:47.551Z,5.93
2023-05-21T19:52:17.178Z,5.72
2023-05-21T19:54:45.283Z,5.95
2023-05-21T19:57:13.608Z,6.13
2023-05-21T19:59:41.487Z,6.30
2023-05-21T20:02:12.705Z,5.82
2023-05-21T20:07:08.634Z,6.20
2023-05-21T20:09:36.456Z,7.28
2023-05-21T20:12:06.440Z,6.90
2023-05-21T20:14:35.627Z,6.80
2023-05-21T20:17:05.619Z,7.25
2023-05-21T20:19:33.560Z,6.85
2023-05-21T20:22:02.443Z,7.05
2023-05-21T20:24:34.104Z,6.70
2023-05-21T20:27:01.954Z,7.00
2023-05-21T20:29:29.868Z,7.13
2023-05-21T20:31:57.967Z,6.57
2023-05-21T20:34:27.335Z,7.57
2023-05-21T20:36:58.228Z,7.15
2023-05-21T20:39:29.814Z,6.63
2023-05-21T20:41:58.390Z,6.95
2023-05-21T20:44:27.533Z,7.05
2023-05-21T20:46:55.362Z,7.03
2023-05-21T20:49:24.940Z,6.57
2023-05-21T20:51:52.871Z,7.20
2023-05-21T20:54:22.237Z,7.35
2023-05-21T20:56:50.637Z,7.40
2023-05-21T20:59:18.490Z,7.40
2023-05-21T21:01:46.527Z,7.00
2023-05-21T21:04:14.301Z,7.78
2023-05-21T21:06:42.131Z,7.18
2023-05-21T21:09:10.100Z,7.60
2023-05-21T21:11:37.875Z,7.32
2023-05-21T21:14:05.795Z,7.20
2023-05-21T21:16:33.667Z,7.35
2023-05-21T21:19:01.654Z,7.88
2023-05-21T21:21:29.562Z,7.40
2023-05-21T21:23:57.431Z,8.40
2023-05-21T21:26:25.260Z,7.68
2023-05-21T21:28:53.110Z,7.70
2023-05-21T21:31:21.254Z,7.65
2023-05-21T21:33:49.535Z,7.60
2023-05-21T21:36:17.548Z,7.72
2023-05-21T21:38:45.287Z,7.68
2023-05-21T21:41:13.614Z,7.78
2023-05-21T21:43:41.492Z,7.53
2023-05-21T21:46:09.378Z,8.13
2023-05-21T21:48:37.376Z,7.85
2023-05-21T21:51:05.690Z,7.50
2023-05-21T21:53:35.479Z,7.25
2023-05-21T21:56:03.321Z,7.45
2023-05-21T21:58:31.664Z,8.05
2023-05-21T22:00:59.572Z,7.63
2023-05-21T22:03:27.386Z,8.00
2023-05-21T22:05:55.400Z,8.48
2023-05-21T22:08:23.367Z,8.35
2023-05-21T22:10:51.290Z,7.80
2023-05-21T22:13:19.102Z,8.10
2023-05-21T22:15:47.252Z,8.18
2023-05-21T22:18:20.402Z,8.57
2023-05-21T22:20:53.088Z,8.77
2023-05-21T22:23:21.198Z,8.73
2023-05-21T22:25:49.068Z,8.35
2023-05-21T22:28:16.893Z,8.82
2023-05-21T22:30:44.706Z,9.50
2023-05-21T22:33:12.529Z,9.20
2023-05-21T22:35:40.331Z,9.45
2023-05-21T22:38:08.075Z,9.40
2023-05-21T22:40:36.224Z,9.13
2023-05-21T22:43:04.778Z,8.70
2023-05-21T22:45:32.579Z,9.20
2023-05-21T22:48:07.422Z,9.38
2023-05-21T22:50:36.260Z,9.02
2023-05-21T22:53:04.305Z,9.38
2023-05-21T22:55:32.047Z,9.07
2023-05-21T22:57:59.777Z,9.48
2023-05-21T23:00:29.162Z,9.32
2023-05-21T23:02:59.211Z,9.35
2023-05-21T23:05:27.111Z,9.43
2023-05-21T23:07:54.894Z,9.25
2023-05-21T23:10:22.855Z,9.45
2023-05-21T23:12:50.629Z,9.25
2023-05-21T23:15:18.984Z,9.02
2023-05-21T23:17:46.907Z,8.95
2023-05-21T23:20:15.438Z,8.88
2023-05-21T23:22:43.246Z,8.63
2023-05-21T23:25:11.020Z,9.02
2023-05-21T23:27:39.181Z,8.18
2023-05-21T23:30:07.927Z,9.07
2023-05-21T23:32:35.769Z,8.60
2023-05-21T23:35:03.734Z,8.60
2023-05-21T23:37:31.669Z,8.80
2023-05-21T23:39:59.500Z,8.18
2023-05-21T23:42:27.339Z,8.48
2023-05-21T23:44:56.251Z,8.23
2023-05-21T23:47:23.974Z,9.10
2023-05-21T23:49:52.654Z,8.77
2023-05-21T23:52:20.474Z,8.38
2023-05-21T23:54:48.249Z,8.50
2023-05-21T23:57:16.090Z,8.70
2023-05-21T23:59:43.843Z,8.90
